sensor_id;sensor_type;location;lat;lon;timestamp;P1;durP1;ratioP1;P2;durP2;ratioP2
41923;SDS011;27613;48.116;11.656;2022-08-11T00:00:59;6.40;;;2.17;;
41923;SDS011;27613;48.116;11.656;2022-08-11T00:03:17;3.00;;;1.77;;
41923;SDS011;27613;48.116;11.656;2022-08-11T00:08:19;2.75;;;1.80;;
41923;SDS011;27613;48.116;11.656;2022-08-11T00:10:52;4.28;;;2.15;;
41923;SDS011;27613;48.116;11.656;2022-08-11T00:13:30;4.85;;;2.15;;
41923;SDS011;27613;48.116;11.656;2022-08-11T00:16:02;3.28;;;2.15;;
41923;SDS011;27613;48.116;11.656;2022-08-11T00:18:38;4.55;;;2.10;;
41923;SDS011;27613;48.116;11.656;2022-08-11T00:21:08;3.67;;;2.28;;
41923;SDS011;27613;48.116;11.656;2022-08-11T00:23:38;4.40;;;2.13;;
41923;SDS011;27613;48.116;11.656;2022-08-11T00:26:10;2.80;;;1.85;;
41923;SDS011;27613;48.116;11.656;2022-08-11T00:28:37;4.55;;;2.47;;
41923;SDS011;27613;48.116;11.656;2022-08-11T00:31:04;4.93;;;2.03;;
41923;SDS011;27613;48.116;11.656;2022-08-11T00:33:41;5.75;;;2.20;;
41923;SDS011;27613;48.116;11.656;2022-08-11T00:36:09;3.00;;;2.10;;
41923;SDS011;27613;48.116;11.656;2022-08-11T00:38:37;4.60;;;2.60;;
41923;SDS011;27613;48.116;11.656;2022-08-11T00:49:42;4.88;;;2.13;;
41923;SDS011;27613;48.116;11.656;2022-08-11T00:52:22;4.35;;;2.47;;
41923;SDS011;27613;48.116;11.656;2022-08-11T00:55:02;4.50;;;2.55;;
41923;SDS011;27613;48.116;11.656;2022-08-11T01:00:55;4.55;;;2.65;;
41923;SDS011;27613;48.116;11.656;2022-08-11T01:03:43;4.43;;;2.53;;
41923;SDS011;27613;48.116;11.656;2022-08-11T01:06:26;6.53;;;2.40;;
41923;SDS011;27613;48.116;11.656;2022-08-11T01:37:57;6.47;;;3.00;;
41923;SDS011;27613;48.116;11.656;2022-08-11T02:01:44;4.32;;;2.40;;
41923;SDS011;27613;48.116;11.656;2022-08-11T02:04:37;5.90;;;2.65;;
41923;SDS011;27613;48.116;11.656;2022-08-11T02:13:19;3.97;;;2.33;;
41923;SDS011;27613;48.116;11.656;2022-08-11T02:25:26;5.60;;;2.47;;
41923;SDS011;27613;48.116;11.656;2022-08-11T02:30:34;4.03;;;2.63;;
41923;SDS011;27613;48.116;11.656;2022-08-11T02:33:23;7.05;;;2.70;;
41923;SDS011;27613;48.116;11.656;2022-08-11T02:36:13;4.65;;;2.67;;
41923;SDS011;27613;48.116;11.656;2022-08-11T02:39:05;7.00;;;2.95;;
41923;SDS011;27613;48.116;11.656;2022-08-11T02:41:43;4.40;;;2.80;;
41923;SDS011;27613;48.116;11.656;2022-08-11T02:50:41;3.95;;;2.70;;
41923;SDS011;27613;48.116;11.656;2022-08-11T02:53:38;3.25;;;2.30;;
41923;SDS011;27613;48.116;11.656;2022-08-11T03:02:23;4.53;;;2.78;;
41923;SDS011;27613;48.116;11.656;2022-08-11T03:13:44;3.47;;;2.75;;
41923;SDS011;27613;48.116;11.656;2022-08-11T03:16:41;9.63;;;3.13;;
41923;SDS011;27613;48.116;11.656;2022-08-11T03:27:59;4.20;;;2.60;;
41923;SDS011;27613;48.116;11.656;2022-08-11T03:30:33;6.15;;;2.55;;
41923;SDS011;27613;48.116;11.656;2022-08-11T03:33:26;5.15;;;2.90;;
41923;SDS011;27613;48.116;11.656;2022-08-11T03:36:51;3.75;;;2.70;;
41923;SDS011;27613;48.116;11.656;2022-08-11T03:42:14;5.32;;;2.75;;
41923;SDS011;27613;48.116;11.656;2022-08-11T03:44:49;5.10;;;2.78;;
41923;SDS011;27613;48.116;11.656;2022-08-11T04:24:30;5.45;;;3.42;;
41923;SDS011;27613;48.116;11.656;2022-08-11T04:33:28;3.65;;;2.80;;
41923;SDS011;27613;48.116;11.656;2022-08-11T04:47:59;5.63;;;3.20;;
41923;SDS011;27613;48.116;11.656;2022-08-11T04:57:40;6.55;;;3.55;;
41923;SDS011;27613;48.116;11.656;2022-08-11T05:00:40;6.25;;;3.42;;
41923;SDS011;27613;48.116;11.656;2022-08-11T05:06:28;5.05;;;3.40;;
41923;SDS011;27613;48.116;11.656;2022-08-11T05:09:20;4.47;;;3.15;;
41923;SDS011;27613;48.116;11.656;2022-08-11T05:15:45;5.50;;;3.63;;
41923;SDS011;27613;48.116;11.656;2022-08-11T05:18:34;6.55;;;4.00;;
41923;SDS011;27613;48.116;11.656;2022-08-11T05:21:28;7.03;;;3.53;;
41923;SDS011;27613;48.116;11.656;2022-08-11T05:24:29;4.95;;;3.38;;
41923;SDS011;27613;48.116;11.656;2022-08-11T05:27:27;5.05;;;3.42;;
41923;SDS011;27613;48.116;11.656;2022-08-11T05:30:28;13.40;;;4.03;;
41923;SDS011;27613;48.116;11.656;2022-08-11T05:33:14;6.77;;;3.83;;
41923;SDS011;27613;48.116;11.656;2022-08-11T05:38:58;4.95;;;3.53;;
41923;SDS011;27613;48.116;11.656;2022-08-11T05:41:44;4.05;;;3.10;;
41923;SDS011;27613;48.116;11.656;2022-08-11T05:44:31;4.72;;;3.10;;
41923;SDS011;27613;48.116;11.656;2022-08-11T05:47:23;9.98;;;3.35;;
41923;SDS011;27613;48.116;11.656;2022-08-11T05:50:09;5.38;;;3.45;;
41923;SDS011;27613;48.116;11.656;2022-08-11T05:55:40;5.63;;;3.17;;
41923;SDS011;27613;48.116;11.656;2022-08-11T05:58:34;7.80;;;3.53;;
41923;SDS011;27613;48.116;11.656;2022-08-11T06:01:02;5.65;;;3.60;;
41923;SDS011;27613;48.116;11.656;2022-08-11T06:03:29;4.80;;;3.20;;
41923;SDS011;27613;48.116;11.656;2022-08-11T06:06:18;7.82;;;3.13;;
41923;SDS011;27613;48.116;11.656;2022-08-11T06:08:56;7.22;;;3.42;;
41923;SDS011;27613;48.116;11.656;2022-08-11T06:18:34;5.05;;;3.10;;
41923;SDS011;27613;48.116;11.656;2022-08-11T06:21:07;4.07;;;2.90;;
41923;SDS011;27613;48.116;11.656;2022-08-11T06:23:56;8.45;;;2.75;;
41923;SDS011;27613;48.116;11.656;2022-08-11T06:26:23;3.88;;;2.75;;
41923;SDS011;27613;48.116;11.656;2022-08-11T06:28:49;4.45;;;2.67;;
41923;SDS011;27613;48.116;11.656;2022-08-11T06:31:19;3.65;;;2.28;;
41923;SDS011;27613;48.116;11.656;2022-08-11T06:34:08;4.70;;;2.60;;
41923;SDS011;27613;48.116;11.656;2022-08-11T06:37:00;4.45;;;2.50;;
41923;SDS011;27613;48.116;11.656;2022-08-11T06:42:42;3.17;;;2.45;;
41923;SDS011;27613;48.116;11.656;2022-08-11T06:45:54;6.88;;;3.00;;
41923;SDS011;27613;48.116;11.656;2022-08-11T06:48:27;4.43;;;2.58;;
41923;SDS011;27613;48.116;11.656;2022-08-11T06:50:56;5.18;;;2.50;;
41923;SDS011;27613;48.116;11.656;2022-08-11T06:53:45;5.28;;;2.95;;
41923;SDS011;27613;48.116;11.656;2022-08-11T06:56:13;5.00;;;2.77;;
41923;SDS011;27613;48.116;11.656;2022-08-11T06:58:58;4.50;;;2.90;;
41923;SDS011;27613;48.116;11.656;2022-08-11T07:01:52;5.25;;;2.90;;
41923;SDS011;27613;48.116;11.656;2022-08-11T07:04:48;3.72;;;2.38;;
41923;SDS011;27613;48.116;11.656;2022-08-11T07:13:46;5.22;;;2.33;;
41923;SDS011;27613;48.116;11.656;2022-08-11T07:16:37;5.25;;;2.38;;
41923;SDS011;27613;48.116;11.656;2022-08-11T07:19:08;4.93;;;2.58;;
41923;SDS011;27613;48.116;11.656;2022-08-11T07:21:54;3.28;;;2.50;;
41923;SDS011;27613;48.116;11.656;2022-08-11T07:24:41;5.68;;;2.60;;
41923;SDS011;27613;48.116;11.656;2022-08-11T07:27:37;3.30;;;2.60;;
41923;SDS011;27613;48.116;11.656;2022-08-11T07:30:26;4.30;;;2.58;;
41923;SDS011;27613;48.116;11.656;2022-08-11T07:33:00;3.40;;;2.15;;
41923;SDS011;27613;48.116;11.656;2022-08-11T07:35:32;4.30;;;2.17;;
41923;SDS011;27613;48.116;11.656;2022-08-11T07:38:07;6.50;;;2.25;;
41923;SDS011;27613;48.116;11.656;2022-08-11T07:40:39;3.78;;;2.28;;
41923;SDS011;27613;48.116;11.656;2022-08-11T07:43:07;5.00;;;2.35;;
41923;SDS011;27613;48.116;11.656;2022-08-11T07:45:36;6.00;;;2.30;;
41923;SDS011;27613;48.116;11.656;2022-08-11T07:48:26;2.58;;;2.05;;
41923;SDS011;27613;48.116;11.656;2022-08-11T07:51:10;3.13;;;2.30;;
41923;SDS011;27613;48.116;11.656;2022-08-11T07:54:02;4.70;;;2.30;;
41923;SDS011;27613;48.116;11.656;2022-08-11T07:56:31;3.88;;;2.50;;
41923;SDS011;27613;48.116;11.656;2022-08-11T07:58:59;7.15;;;2.85;;
41923;SDS011;27613;48.116;11.656;2022-08-11T08:01:43;3.58;;;2.35;;
41923;SDS011;27613;48.116;11.656;2022-08-11T08:04:29;3.33;;;2.30;;
41923;SDS011;27613;48.116;11.656;2022-08-11T08:07:14;4.22;;;2.45;;
41923;SDS011;27613;48.116;11.656;2022-08-11T08:10:03;4.32;;;2.65;;
41923;SDS011;27613;48.116;11.656;2022-08-11T08:12:50;3.85;;;2.00;;
41923;SDS011;27613;48.116;11.656;2022-08-11T08:15:35;3.45;;;2.10;;
41923;SDS011;27613;48.116;11.656;2022-08-11T08:18:20;6.53;;;2.28;;
41923;SDS011;27613;48.116;11.656;2022-08-11T08:20:48;7.65;;;2.30;;
41923;SDS011;27613;48.116;11.656;2022-08-11T08:23:15;4.53;;;2.30;;
41923;SDS011;27613;48.116;11.656;2022-08-11T08:25:43;5.05;;;2.13;;
41923;SDS011;27613;48.116;11.656;2022-08-11T08:28:10;2.85;;;1.98;;
41923;SDS011;27613;48.116;11.656;2022-08-11T08:30:39;3.97;;;2.58;;
41923;SDS011;27613;48.116;11.656;2022-08-11T08:33:13;5.03;;;2.07;;
41923;SDS011;27613;48.116;11.656;2022-08-11T08:35:43;8.60;;;2.40;;
41923;SDS011;27613;48.116;11.656;2022-08-11T08:38:10;4.32;;;2.03;;
41923;SDS011;27613;48.116;11.656;2022-08-11T08:40:38;8.73;;;2.08;;
41923;SDS011;27613;48.116;11.656;2022-08-11T08:43:08;3.75;;;2.00;;
41923;SDS011;27613;48.116;11.656;2022-08-11T08:45:39;4.97;;;1.88;;
41923;SDS011;27613;48.116;11.656;2022-08-11T08:48:10;2.92;;;1.92;;
41923;SDS011;27613;48.116;11.656;2022-08-11T08:50:44;5.57;;;2.70;;
41923;SDS011;27613;48.116;11.656;2022-08-11T08:53:50;5.15;;;2.38;;
41923;SDS011;27613;48.116;11.656;2022-08-11T08:56:18;6.25;;;2.15;;
41923;SDS011;27613;48.116;11.656;2022-08-11T08:58:49;3.50;;;2.20;;
41923;SDS011;27613;48.116;11.656;2022-08-11T09:01:15;5.90;;;2.03;;
41923;SDS011;27613;48.116;11.656;2022-08-11T09:03:45;3.25;;;1.90;;
41923;SDS011;27613;48.116;11.656;2022-08-11T09:06:10;3.97;;;1.95;;
41923;SDS011;27613;48.116;11.656;2022-08-11T09:08:40;2.95;;;1.80;;
41923;SDS011;27613;48.116;11.656;2022-08-11T09:11:07;3.33;;;2.08;;
41923;SDS011;27613;48.116;11.656;2022-08-11T09:13:53;7.85;;;1.95;;
41923;SDS011;27613;48.116;11.656;2022-08-11T09:16:20;3.47;;;2.00;;
41923;SDS011;27613;48.116;11.656;2022-08-11T09:18:48;2.72;;;1.70;;
41923;SDS011;27613;48.116;11.656;2022-08-11T09:21:15;4.80;;;2.05;;
41923;SDS011;27613;48.116;11.656;2022-08-11T09:23:44;3.30;;;2.00;;
41923;SDS011;27613;48.116;11.656;2022-08-11T09:29:14;3.10;;;1.67;;
41923;SDS011;27613;48.116;11.656;2022-08-11T09:31:39;2.97;;;1.80;;
41923;SDS011;27613;48.116;11.656;2022-08-11T09:34:07;3.10;;;1.70;;
41923;SDS011;27613;48.116;11.656;2022-08-11T09:36:36;3.67;;;1.80;;
41923;SDS011;27613;48.116;11.656;2022-08-11T09:39:22;2.90;;;1.63;;
41923;SDS011;27613;48.116;11.656;2022-08-11T09:42:07;2.47;;;1.58;;
41923;SDS011;27613;48.116;11.656;2022-08-11T09:44:33;2.58;;;1.70;;
41923;SDS011;27613;48.116;11.656;2022-08-11T09:47:12;3.03;;;1.90;;
41923;SDS011;27613;48.116;11.656;2022-08-11T09:49:58;2.28;;;1.60;;
41923;SDS011;27613;48.116;11.656;2022-08-11T09:52:24;3.03;;;1.60;;
41923;SDS011;27613;48.116;11.656;2022-08-11T09:54:51;2.75;;;1.63;;
41923;SDS011;27613;48.116;11.656;2022-08-11T09:57:21;2.08;;;1.40;;
41923;SDS011;27613;48.116;11.656;2022-08-11T10:00:08;2.47;;;1.40;;
41923;SDS011;27613;48.116;11.656;2022-08-11T10:02:39;2.95;;;1.67;;
41923;SDS011;27613;48.116;11.656;2022-08-11T10:05:08;5.22;;;1.80;;
41923;SDS011;27613;48.116;11.656;2022-08-11T10:07:54;3.05;;;1.58;;
41923;SDS011;27613;48.116;11.656;2022-08-11T10:10:21;2.33;;;1.35;;
41923;SDS011;27613;48.116;11.656;2022-08-11T10:12:54;4.40;;;1.67;;
41923;SDS011;27613;48.116;11.656;2022-08-11T10:15:23;2.22;;;1.50;;
41923;SDS011;27613;48.116;11.656;2022-08-11T10:18:01;2.25;;;1.45;;
41923;SDS011;27613;48.116;11.656;2022-08-11T10:20:50;2.28;;;1.50;;
41923;SDS011;27613;48.116;11.656;2022-08-11T10:23:19;2.35;;;1.40;;
41923;SDS011;27613;48.116;11.656;2022-08-11T10:26:05;2.75;;;1.40;;
41923;SDS011;27613;48.116;11.656;2022-08-11T10:28:50;3.42;;;1.50;;
41923;SDS011;27613;48.116;11.656;2022-08-11T10:31:18;1.95;;;1.27;;
41923;SDS011;27613;48.116;11.656;2022-08-11T10:34:03;2.90;;;1.33;;
41923;SDS011;27613;48.116;11.656;2022-08-11T10:36:40;3.72;;;1.60;;
41923;SDS011;27613;48.116;11.656;2022-08-11T10:39:14;2.67;;;1.55;;
41923;SDS011;27613;48.116;11.656;2022-08-11T10:41:46;2.75;;;1.30;;
41923;SDS011;27613;48.116;11.656;2022-08-11T10:44:35;4.00;;;1.58;;
41923;SDS011;27613;48.116;11.656;2022-08-11T10:47:03;2.25;;;1.40;;
41923;SDS011;27613;48.116;11.656;2022-08-11T10:49:48;4.47;;;1.50;;
41923;SDS011;27613;48.116;11.656;2022-08-11T10:52:35;2.05;;;1.40;;
41923;SDS011;27613;48.116;11.656;2022-08-11T10:55:21;2.75;;;1.48;;
41923;SDS011;27613;48.116;11.656;2022-08-11T10:58:06;4.10;;;1.67;;
41923;SDS011;27613;48.116;11.656;2022-08-11T11:00:52;4.07;;;1.60;;
41923;SDS011;27613;48.116;11.656;2022-08-11T11:03:21;4.45;;;1.60;;
41923;SDS011;27613;48.116;11.656;2022-08-11T11:05:50;3.00;;;1.60;;
41923;SDS011;27613;48.116;11.656;2022-08-11T11:08:19;2.30;;;1.20;;
41923;SDS011;27613;48.116;11.656;2022-08-11T11:11:11;3.78;;;1.55;;
41923;SDS011;27613;48.116;11.656;2022-08-11T11:13:40;2.22;;;1.40;;
41923;SDS011;27613;48.116;11.656;2022-08-11T11:16:30;2.47;;;1.30;;
41923;SDS011;27613;48.116;11.656;2022-08-11T11:19:14;6.13;;;1.63;;
41923;SDS011;27613;48.116;11.656;2022-08-11T11:21:45;1.92;;;1.40;;
41923;SDS011;27613;48.116;11.656;2022-08-11T11:27:10;2.45;;;1.38;;
41923;SDS011;27613;48.116;11.656;2022-08-11T11:32:31;3.53;;;1.83;;
41923;SDS011;27613;48.116;11.656;2022-08-11T11:37:59;8.25;;;1.42;;
41923;SDS011;27613;48.116;11.656;2022-08-11T11:40:30;3.15;;;1.70;;
41923;SDS011;27613;48.116;11.656;2022-08-11T11:43:01;5.00;;;1.42;;
41923;SDS011;27613;48.116;11.656;2022-08-11T11:45:27;2.42;;;1.27;;
41923;SDS011;27613;48.116;11.656;2022-08-11T11:50:46;2.85;;;1.30;;
41923;SDS011;27613;48.116;11.656;2022-08-11T11:53:13;1.63;;;1.30;;
41923;SDS011;27613;48.116;11.656;2022-08-11T11:55:39;6.15;;;1.50;;
41923;SDS011;27613;48.116;11.656;2022-08-11T11:58:05;2.33;;;1.40;;
41923;SDS011;27613;48.116;11.656;2022-08-11T12:00:51;1.92;;;1.13;;
41923;SDS011;27613;48.116;11.656;2022-08-11T12:03:36;1.83;;;1.27;;
41923;SDS011;27613;48.116;11.656;2022-08-11T12:06:09;1.55;;;1.20;;
41923;SDS011;27613;48.116;11.656;2022-08-11T12:08:38;2.00;;;1.20;;
41923;SDS011;27613;48.116;11.656;2022-08-11T12:11:06;2.15;;;1.13;;
41923;SDS011;27613;48.116;11.656;2022-08-11T12:13:56;1.27;;;1.05;;
41923;SDS011;27613;48.116;11.656;2022-08-11T12:16:26;1.95;;;1.48;;
41923;SDS011;27613;48.116;11.656;2022-08-11T12:22:12;1.95;;;1.25;;
41923;SDS011;27613;48.116;11.656;2022-08-11T12:28:03;15.20;;;1.77;;
41923;SDS011;27613;48.116;11.656;2022-08-11T12:30:29;2.72;;;1.45;;
41923;SDS011;27613;48.116;11.656;2022-08-11T12:32:55;2.20;;;1.40;;
41923;SDS011;27613;48.116;11.656;2022-08-11T12:35:21;2.08;;;1.20;;
41923;SDS011;27613;48.116;11.656;2022-08-11T12:37:48;2.78;;;1.23;;
41923;SDS011;27613;48.116;11.656;2022-08-11T12:43:35;1.58;;;1.13;;
41923;SDS011;27613;48.116;11.656;2022-08-11T12:46:35;2.58;;;1.30;;
41923;SDS011;27613;48.116;11.656;2022-08-11T12:49:14;2.60;;;1.33;;
41923;SDS011;27613;48.116;11.656;2022-08-11T12:52:03;1.63;;;1.17;;
41923;SDS011;27613;48.116;11.656;2022-08-11T12:57:27;2.25;;;1.20;;
41923;SDS011;27613;48.116;11.656;2022-08-11T13:00:18;2.53;;;1.30;;
41923;SDS011;27613;48.116;11.656;2022-08-11T13:03:07;1.92;;;1.35;;
41923;SDS011;27613;48.116;11.656;2022-08-11T13:05:57;3.47;;;1.63;;
41923;SDS011;27613;48.116;11.656;2022-08-11T13:10:55;4.28;;;1.67;;
41923;SDS011;27613;48.116;11.656;2022-08-11T13:13:44;2.65;;;1.38;;
41923;SDS011;27613;48.116;11.656;2022-08-11T13:16:14;2.58;;;1.45;;
41923;SDS011;27613;48.116;11.656;2022-08-11T13:18:50;2.17;;;1.30;;
41923;SDS011;27613;48.116;11.656;2022-08-11T13:21:35;3.63;;;1.30;;
41923;SDS011;27613;48.116;11.656;2022-08-11T13:24:04;2.10;;;1.08;;
41923;SDS011;27613;48.116;11.656;2022-08-11T13:26:46;2.47;;;1.40;;
41923;SDS011;27613;48.116;11.656;2022-08-11T13:29:21;1.67;;;1.17;;
41923;SDS011;27613;48.116;11.656;2022-08-11T13:31:54;1.52;;;1.20;;
41923;SDS011;27613;48.116;11.656;2022-08-11T13:34:25;2.35;;;1.50;;
41923;SDS011;27613;48.116;11.656;2022-08-11T13:36:56;2.03;;;1.40;;
41923;SDS011;27613;48.116;11.656;2022-08-11T13:40:00;1.90;;;1.40;;
41923;SDS011;27613;48.116;11.656;2022-08-11T13:42:29;1.67;;;1.05;;
41923;SDS011;27613;48.116;11.656;2022-08-11T13:44:55;3.47;;;1.40;;
41923;SDS011;27613;48.116;11.656;2022-08-11T13:47:27;3.35;;;1.42;;
41923;SDS011;27613;48.116;11.656;2022-08-11T13:55:57;1.45;;;1.00;;
41923;SDS011;27613;48.116;11.656;2022-08-11T14:07:51;4.40;;;1.58;;
41923;SDS011;27613;48.116;11.656;2022-08-11T14:10:25;3.15;;;1.10;;
41923;SDS011;27613;48.116;11.656;2022-08-11T14:13:41;3.28;;;1.30;;
41923;SDS011;27613;48.116;11.656;2022-08-11T14:16:03;2.35;;;1.40;;
41923;SDS011;27613;48.116;11.656;2022-08-11T14:18:32;1.80;;;1.10;;
41923;SDS011;27613;48.116;11.656;2022-08-11T14:21:00;2.05;;;1.23;;
41923;SDS011;27613;48.116;11.656;2022-08-11T14:23:51;3.20;;;1.13;;
41923;SDS011;27613;48.116;11.656;2022-08-11T14:26:23;2.42;;;1.27;;
41923;SDS011;27613;48.116;11.656;2022-08-11T14:29:12;1.77;;;1.17;;
41923;SDS011;27613;48.116;11.656;2022-08-11T14:31:46;5.57;;;1.60;;
41923;SDS011;27613;48.116;11.656;2022-08-11T14:34:12;3.28;;;1.15;;
41923;SDS011;27613;48.116;11.656;2022-08-11T14:36:39;2.30;;;1.48;;
41923;SDS011;27613;48.116;11.656;2022-08-11T14:39:08;2.47;;;1.30;;
41923;SDS011;27613;48.116;11.656;2022-08-11T14:41:36;2.53;;;1.15;;
41923;SDS011;27613;48.116;11.656;2022-08-11T14:44:25;1.45;;;1.20;;
41923;SDS011;27613;48.116;11.656;2022-08-11T14:47:14;1.20;;;1.00;;
41923;SDS011;27613;48.116;11.656;2022-08-11T14:49:41;1.65;;;1.10;;
41923;SDS011;27613;48.116;11.656;2022-08-11T14:52:15;1.75;;;1.17;;
41923;SDS011;27613;48.116;11.656;2022-08-11T14:54:43;1.73;;;1.10;;
41923;SDS011;27613;48.116;11.656;2022-08-11T14:57:30;2.22;;;1.08;;
41923;SDS011;27613;48.116;11.656;2022-08-11T14:59:59;1.00;;;0.77;;
41923;SDS011;27613;48.116;11.656;2022-08-11T15:02:26;1.95;;;1.20;;
41923;SDS011;27613;48.116;11.656;2022-08-11T15:05:12;1.50;;;1.10;;
41923;SDS011;27613;48.116;11.656;2022-08-11T15:07:39;3.05;;;1.30;;
41923;SDS011;27613;48.116;11.656;2022-08-11T15:10:06;1.80;;;1.00;;
41923;SDS011;27613;48.116;11.656;2022-08-11T15:12:33;2.65;;;1.40;;
41923;SDS011;27613;48.116;11.656;2022-08-11T15:15:01;1.48;;;1.17;;
41923;SDS011;27613;48.116;11.656;2022-08-11T15:17:47;2.47;;;1.20;;
41923;SDS011;27613;48.116;11.656;2022-08-11T15:20:16;1.77;;;1.17;;
41923;SDS011;27613;48.116;11.656;2022-08-11T15:23:03;3.63;;;1.42;;
41923;SDS011;27613;48.116;11.656;2022-08-11T15:25:48;26.02;;;1.55;;
41923;SDS011;27613;48.116;11.656;2022-08-11T15:28:19;3.15;;;1.42;;
41923;SDS011;27613;48.116;11.656;2022-08-11T15:31:06;4.43;;;1.40;;
41923;SDS011;27613;48.116;11.656;2022-08-11T15:36:36;1.83;;;1.00;;
41923;SDS011;27613;48.116;11.656;2022-08-11T15:39:22;2.63;;;1.30;;
41923;SDS011;27613;48.116;11.656;2022-08-11T15:41:56;2.38;;;1.02;;
41923;SDS011;27613;48.116;11.656;2022-08-11T15:44:42;4.35;;;1.27;;
41923;SDS011;27613;48.116;11.656;2022-08-11T15:47:47;4.70;;;1.50;;
41923;SDS011;27613;48.116;11.656;2022-08-11T15:50:21;2.50;;;1.38;;
41923;SDS011;27613;48.116;11.656;2022-08-11T15:52:55;1.90;;;1.40;;
41923;SDS011;27613;48.116;11.656;2022-08-11T15:55:32;3.03;;;1.50;;
41923;SDS011;27613;48.116;11.656;2022-08-11T15:58:01;2.00;;;1.15;;
41923;SDS011;27613;48.116;11.656;2022-08-11T16:00:50;3.53;;;1.38;;
41923;SDS011;27613;48.116;11.656;2022-08-11T16:03:41;2.53;;;1.35;;
41923;SDS011;27613;48.116;11.656;2022-08-11T16:06:31;2.30;;;1.17;;
41923;SDS011;27613;48.116;11.656;2022-08-11T16:08:59;1.70;;;1.05;;
41923;SDS011;27613;48.116;11.656;2022-08-11T16:11:29;3.00;;;1.25;;
41923;SDS011;27613;48.116;11.656;2022-08-11T16:13:58;2.97;;;1.20;;
41923;SDS011;27613;48.116;11.656;2022-08-11T16:16:47;3.35;;;1.13;;
41923;SDS011;27613;48.116;11.656;2022-08-11T16:19:14;3.15;;;1.30;;
41923;SDS011;27613;48.116;11.656;2022-08-11T16:21:43;5.68;;;1.58;;
41923;SDS011;27613;48.116;11.656;2022-08-11T16:24:10;8.52;;;2.05;;
41923;SDS011;27613;48.116;11.656;2022-08-11T16:26:40;5.78;;;2.30;;
41923;SDS011;27613;48.116;11.656;2022-08-11T16:29:07;8.40;;;2.03;;
41923;SDS011;27613;48.116;11.656;2022-08-11T16:31:35;7.95;;;2.47;;
41923;SDS011;27613;48.116;11.656;2022-08-11T16:34:03;8.73;;;2.72;;
41923;SDS011;27613;48.116;11.656;2022-08-11T16:36:50;6.15;;;1.50;;
41923;SDS011;27613;48.116;11.656;2022-08-11T16:39:35;3.88;;;1.60;;
41923;SDS011;27613;48.116;11.656;2022-08-11T16:42:01;5.57;;;1.58;;
41923;SDS011;27613;48.116;11.656;2022-08-11T16:44:45;2.33;;;1.38;;
41923;SDS011;27613;48.116;11.656;2022-08-11T16:47:29;1.88;;;1.20;;
41923;SDS011;27613;48.116;11.656;2022-08-11T16:49:55;5.50;;;1.30;;
41923;SDS011;27613;48.116;11.656;2022-08-11T16:52:22;1.98;;;1.17;;
41923;SDS011;27613;48.116;11.656;2022-08-11T16:54:48;2.40;;;1.30;;
41923;SDS011;27613;48.116;11.656;2022-08-11T16:57:15;3.08;;;1.70;;
41923;SDS011;27613;48.116;11.656;2022-08-11T17:00:06;2.08;;;1.30;;
41923;SDS011;27613;48.116;11.656;2022-08-11T17:02:36;1.45;;;1.05;;
41923;SDS011;27613;48.116;11.656;2022-08-11T17:05:25;1.80;;;1.20;;
41923;SDS011;27613;48.116;11.656;2022-08-11T17:10:59;2.23;;;1.20;;
41923;SDS011;27613;48.116;11.656;2022-08-11T17:13:46;6.03;;;1.38;;
41923;SDS011;27613;48.116;11.656;2022-08-11T17:16:31;5.75;;;1.45;;
41923;SDS011;27613;48.116;11.656;2022-08-11T17:19:11;2.20;;;1.40;;
41923;SDS011;27613;48.116;11.656;2022-08-11T17:21:44;2.60;;;1.08;;
41923;SDS011;27613;48.116;11.656;2022-08-11T17:24:32;2.33;;;1.27;;
41923;SDS011;27613;48.116;11.656;2022-08-11T17:27:01;3.42;;;1.40;;
41923;SDS011;27613;48.116;11.656;2022-08-11T17:29:47;2.17;;;1.35;;
41923;SDS011;27613;48.116;11.656;2022-08-11T17:32:17;3.47;;;1.20;;
41923;SDS011;27613;48.116;11.656;2022-08-11T17:35:09;2.70;;;1.30;;
41923;SDS011;27613;48.116;11.656;2022-08-11T17:37:56;2.70;;;1.15;;
41923;SDS011;27613;48.116;11.656;2022-08-11T17:40:33;3.55;;;1.35;;
41923;SDS011;27613;48.116;11.656;2022-08-11T17:43:03;1.88;;;1.20;;
41923;SDS011;27613;48.116;11.656;2022-08-11T17:45:49;2.67;;;1.23;;
41923;SDS011;27613;48.116;11.656;2022-08-11T17:48:35;3.90;;;1.33;;
41923;SDS011;27613;48.116;11.656;2022-08-11T17:51:06;2.70;;;1.40;;
41923;SDS011;27613;48.116;11.656;2022-08-11T17:53:36;1.77;;;1.20;;
41923;SDS011;27613;48.116;11.656;2022-08-11T17:56:25;4.38;;;1.25;;
41923;SDS011;27613;48.116;11.656;2022-08-11T17:59:12;1.20;;;1.02;;
41923;SDS011;27613;48.116;11.656;2022-08-11T18:01:58;2.00;;;1.33;;
41923;SDS011;27613;48.116;11.656;2022-08-11T18:04:46;1.80;;;1.20;;
41923;SDS011;27613;48.116;11.656;2022-08-11T18:07:15;2.78;;;1.17;;
41923;SDS011;27613;48.116;11.656;2022-08-11T18:10:02;1.60;;;1.20;;
41923;SDS011;27613;48.116;11.656;2022-08-11T18:12:48;3.53;;;1.50;;
41923;SDS011;27613;48.116;11.656;2022-08-11T18:15:36;2.47;;;1.30;;
41923;SDS011;27613;48.116;11.656;2022-08-11T18:18:22;4.00;;;1.23;;
41923;SDS011;27613;48.116;11.656;2022-08-11T18:21:06;3.22;;;1.65;;
41923;SDS011;27613;48.116;11.656;2022-08-11T18:23:51;5.03;;;1.47;;
41923;SDS011;27613;48.116;11.656;2022-08-11T18:26:37;4.47;;;1.23;;
41923;SDS011;27613;48.116;11.656;2022-08-11T18:29:27;2.47;;;1.20;;
41923;SDS011;27613;48.116;11.656;2022-08-11T18:32:14;2.67;;;1.40;;
41923;SDS011;27613;48.116;11.656;2022-08-11T18:35:01;3.33;;;1.45;;
41923;SDS011;27613;48.116;11.656;2022-08-11T18:37:48;2.33;;;1.52;;
41923;SDS011;27613;48.116;11.656;2022-08-11T18:40:33;2.92;;;1.80;;
41923;SDS011;27613;48.116;11.656;2022-08-11T18:46:05;3.88;;;1.50;;
41923;SDS011;27613;48.116;11.656;2022-08-11T18:48:54;9.07;;;1.42;;
41923;SDS011;27613;48.116;11.656;2022-08-11T18:51:46;4.60;;;1.67;;
41923;SDS011;27613;48.116;11.656;2022-08-11T18:54:33;3.03;;;1.40;;
41923;SDS011;27613;48.116;11.656;2022-08-11T18:57:21;3.30;;;1.60;;
41923;SDS011;27613;48.116;11.656;2022-08-11T19:00:07;2.25;;;1.63;;
41923;SDS011;27613;48.116;11.656;2022-08-11T19:05:38;2.60;;;1.52;;
41923;SDS011;27613;48.116;11.656;2022-08-11T19:08:28;4.25;;;1.77;;
41923;SDS011;27613;48.116;11.656;2022-08-11T19:11:13;3.67;;;1.70;;
41923;SDS011;27613;48.116;11.656;2022-08-11T19:14:01;3.97;;;1.45;;
41923;SDS011;27613;48.116;11.656;2022-08-11T19:16:47;3.70;;;1.52;;
41923;SDS011;27613;48.116;11.656;2022-08-11T19:19:34;5.10;;;2.28;;
41923;SDS011;27613;48.116;11.656;2022-08-11T19:22:21;3.65;;;1.70;;
41923;SDS011;27613;48.116;11.656;2022-08-11T19:25:06;2.97;;;1.70;;
41923;SDS011;27613;48.116;11.656;2022-08-11T19:27:53;3.03;;;1.58;;
41923;SDS011;27613;48.116;11.656;2022-08-11T19:30:38;2.60;;;1.50;;
41923;SDS011;27613;48.116;11.656;2022-08-11T19:33:23;4.40;;;1.60;;
41923;SDS011;27613;48.116;11.656;2022-08-11T19:36:09;3.72;;;1.60;;
41923;SDS011;27613;48.116;11.656;2022-08-11T19:38:54;2.55;;;1.63;;
41923;SDS011;27613;48.116;11.656;2022-08-11T19:41:40;3.07;;;1.90;;
41923;SDS011;27613;48.116;11.656;2022-08-11T19:47:11;2.30;;;1.52;;
41923;SDS011;27613;48.116;11.656;2022-08-11T19:49:56;2.38;;;1.38;;
41923;SDS011;27613;48.116;11.656;2022-08-11T19:52:41;1.70;;;1.40;;
41923;SDS011;27613;48.116;11.656;2022-08-11T19:55:26;3.95;;;1.88;;
41923;SDS011;27613;48.116;11.656;2022-08-11T19:58:12;5.83;;;2.03;;
41923;SDS011;27613;48.116;11.656;2022-08-11T20:00:57;3.17;;;1.50;;
41923;SDS011;27613;48.116;11.656;2022-08-11T20:03:41;3.65;;;2.10;;
41923;SDS011;27613;48.116;11.656;2022-08-11T20:06:26;2.85;;;1.45;;